(content link) weather.gov    
NOAA link
National Weather Service
  NWS link
National Operational Hydrologic
Remote Sensing Center

Back to Snow Analyses Observation Search

Northwest Snowfall Observations
from 2008-12-17 07:00 UTC to 2008-12-18 06:00 UTC

Note: these data are unofficial and provisional.
Latitude and longitude of observations will be included in text files after December 1, 2006.

Text file with Metric unitsText file with English unitsTable with Metric Units

Station IDDate (UTC)Value
(in)
Duration
(hours)
Elevation
(feet)
Station Description
RLGW12008-12-17 179.000242782LONGMIRE RAINER NPS
PKWW12008-12-18 017.000241109PACKWOOD
NWMW12008-12-17 176.00024525V_REMARKS=
6836O_MADIS2008-12-17 155.000242398CLE ELUM 2.6 S, WA
DIAW12008-12-17 175.00024889DIABLO DAM
HSTW12008-12-17 175.00024682HOH RANGER STATION
8925O_MADIS2008-12-17 154.50024213ANACORTES 0.8 ESE, WA
CLBW12008-12-18 024.0002466CLEARBROOK
CNCW12008-12-17 174.00024180CONCRETE PPL FISH STN
ROSW12008-12-17 173.900241276ROSS DAM
SEWW12008-12-17 163.9002446SEDRO WOOLLEY
6644O_MADIS2008-12-17 153.80024381MOUNT VERNON 1.1 E, WA
HLDW12008-12-17 173.600243219HOLDEN VILLAGE
3609C_MADIS2008-12-17 153.100241854LEAVENWORTH 15.7 NNW, WA
7055O_MADIS2008-12-17 173.000241073CINEBAR 2.6 ESE, WA
ESTW12008-12-17 173.000242169EASTON
MTAW12008-12-17 233.000241965MT ADAMS RANGER STN
6882O_MADIS2008-12-17 152.90024236OLYMPIA 6.5 SW, WA
6948O_MADIS2008-12-17 172.50024184TUMWATER 0.6 ESE, WA
6778O_MADIS2008-12-17 162.30024289FREELAND 6.1 NNW, WA
8200O_MADIS2008-12-17 182.10024748CINEBAR 1.7 SW, WA
6652O_MADIS2008-12-17 162.0002498THURSTON COUNTY, WA
MNRW12008-12-18 042.00024128MONROE
ISGW12008-12-17 161.80024184INDIAN SUMMER GOLF COURSE
MZAW12008-12-17 181.200242185MAZAMA
2759O_MADIS2008-12-17 161.00024584TILLAMOOK 16.1 ENE, OR
3399C_MADIS2008-12-17 171.00024899WENATCHEE 1.0 WSW, WA
6634O_MADIS2008-12-17 161.00024230SHELTON 6.1 E, WA
6874O_MADIS2008-12-17 141.00024253EVERETT 1.0 S, WA
6941O_MADIS2008-12-17 121.00024525ELK PLAIN 1.2 SE, WA
CPHW12008-12-17 151.0002436CUSHMAN POWERHOUSE #2
LAMO32008-12-17 171.000243583LAUREL MOUNTAIN
SICO32008-12-18 011.000241437SILVER CREEK FALLS
4492C_MADIS2008-12-17 160.900241890LEAVENWORTH 1.0 NNW, WA
6505O_MADIS2008-12-17 130.80024171THURSTON COUNTY, WA
6785O_MADIS2008-12-17 150.80024876RAVENSDALE 4.0 SE, WA
6876O_MADIS2008-12-17 160.80024112EVERETT 2.4 NNW, WA
6889O_MADIS2008-12-17 150.80024364BELLINGHAM 1.5 SW, WA
7680O_MADIS2008-12-17 150.80024184OLYMPIA 8.5 ESE, WA
3346C_MADIS2008-12-17 170.7002475SHELTON 9.3 ENE, WA
ENUW12008-12-17 160.700241306MUD MOUNTAIN DAM
BARW12008-12-17 180.60024784BARING
6641O_MADIS2008-12-17 170.50024453SUMMIT 1.1 WSW, WA
6646O_MADIS2008-12-17 150.50024617MUKILTEO 2.8 ESE, WA
6784O_MADIS2008-12-17 150.50024545NORTH BEND 2.8 SE, WA
6854O_MADIS2008-12-17 170.50024440PUYALLUP 2.1 ESE, WA
6881O_MADIS2008-12-17 140.50024167ROCHESTER 1.3 NNE, WA
6925O_MADIS2008-12-17 170.50024285CASCADE PARK EAST 0.2 ENE, WA
7721O_MADIS2008-12-17 150.5002452SEQUIM 5.5 NNW, WA
CRSW12008-12-17 160.500241089CARSON FISH HATCHERY
HSKO32008-12-17 160.50024748HASKINS DAM
2167O_MADIS2008-12-17 160.400241368OAKRIDGE 0.7 SE, OR
4310C_MADIS2008-12-17 170.4002495EASTSOUND 0.3 NW, WA
1190O_MADIS2008-12-17 160.30024771NEHALEM 4.1 ESE, OR
1350O_MADIS2008-12-17 160.30024755BLODGETT 1 N, OR
3410C_MADIS2008-12-17 150.30024364EDGEWOOD 2.5 SE, WA
6472O_MADIS2008-12-17 150.30024758VERNONIA 5.4 WNW, OR
6654O_MADIS2008-12-17 150.30024213BELLINGHAM 3.1 SW, WA
6767O_MADIS2008-12-17 170.30024676PORT ANGELES 9.6 SSE, WA
6768O_MADIS2008-12-17 160.300241414CLALLAM COUNTY, WA
7461O_MADIS2008-12-17 150.30024469YELM 6.3 S, WA
8782O_MADIS2008-12-17 160.3002459STEILACOOM 0.4 NW, WA
CLNW12008-12-17 180.300241654CHELAN
WNPW12008-12-18 030.300241877WINTHROP 1 WSW
6846O_MADIS2008-12-17 170.20024610GRAHAM 5.8 SW, WA
6871O_MADIS2008-12-17 150.20024472MILL CREEK 3.8 SE, WA
7048O_MADIS2008-12-18 000.20024125OLALLA 1.4 WNW, WA
7079O_MADIS2008-12-17 150.20024177FERNDALE 1.1 NNW, WA
8678O_MADIS2008-12-17 140.20024417PORT ORCHARD 6.7 SSW, WA
8785O_MADIS2008-12-17 160.2002495WHATCOM COUNTY, WA
1524O_MADIS2008-12-17 150.10024174WASHINGTON COUNTY, OR
6773O_MADIS2008-12-17 150.10024843YACOLT 8.4 N, WA
6818O_MADIS2008-12-17 160.1002439KENT 1.7 SSE, WA
7064O_MADIS2008-12-17 120.10024272TACOMA 3.1 NW, WA
WENW12008-12-17 180.10024696WENATCHEE
1005O_MADIS2008-12-17 150.01024948WASHINGTON COUNTY, OR
1186O_MADIS2008-12-17 150.01024236TROUTDALE 5.0 E, OR
1189O_MADIS2008-12-17 150.01024315MULTNOMAH COUNTY, OR
2111O_MADIS2008-12-17 150.01024141NORTH ALBANY 2.7 NW, OR
2189O_MADIS2008-12-17 150.0102436TOLEDO 1 SE, OR
3282C_MADIS2008-12-17 150.010241581PESHASTIN 5.3 SSW, WA
3285C_MADIS2008-12-17 150.01024696WENATCHEE 0.6 N, WA
3770C_MADIS2008-12-17 150.01024272BRIER 0.8 NE, WA
3915C_MADIS2008-12-17 150.01024253VANCOUVER 6.2 ENE, WA
6523O_MADIS2008-12-17 150.01024486JEFFERSON COUNTY, WA
6786O_MADIS2008-12-17 150.01024492KENT 2.9 ENE, WA
6801O_MADIS2008-12-17 160.01024801ISSAQUAH 5.2 ESE, WA
6811O_MADIS2008-12-17 170.01024243WOODINVILLE 1.7 SE, WA
6817O_MADIS2008-12-17 160.01024430RENTON 3.6 SSE, WA
6839O_MADIS2008-12-17 150.01024764ONALASKA 2.8 NE, WA
6841O_MADIS2008-12-17 150.01024128HOODSPORT 0.2 NNE, WA
6885O_MADIS2008-12-17 130.01024118LYNDEN 0.8 ENE, WA
6950O_MADIS2008-12-17 150.01024354FERNDALE 2.1 NW, WA
7031O_MADIS2008-12-17 150.01024682BRUSH PRAIRIE 5.4 E, WA
8198O_MADIS2008-12-17 150.01024240CURTIS 1.3 SW, WA
8779O_MADIS2008-12-17 150.01024889PORT ANGELES 2.5 SSW, WA
MAWW12008-12-17 140.00124804MAYFIELD POWER PLANT
0999O_MADIS2008-12-17 150.00024387LINN COUNTY, OR
1000O_MADIS2008-12-17 160.00024735LINN COUNTY, OR
1001O_MADIS2008-12-17 150.00024210LINN COUNTY, OR
1002O_MADIS2008-12-17 160.00024289LINN COUNTY, OR
1004O_MADIS2008-12-17 150.00024574CEDAR MILL 1.6 SE, OR
1006O_MADIS2008-12-17 160.00024456WASHINGTON COUNTY, OR
1133O_MADIS2008-12-17 140.00024331PHILOMATH 1.9 WSW, OR
1134O_MADIS2008-12-17 160.00024440CORVALLIS 9.6 SW, OR
1136O_MADIS2008-12-17 150.00024469CORVALLIS 1.5 NW, OR
1139O_MADIS2008-12-17 150.00024413OREGON CITY 5 SE, OR
1163O_MADIS2008-12-17 140.0002433FLORENCE 1.8 NW, OR
1164O_MADIS2008-12-17 160.0002472FLORENCE 2.1 NNW, OR
1169O_MADIS2008-12-17 150.00024384LANE COUNTY, OR
1178O_MADIS2008-12-17 150.00024272SCIO 4.2 SW, OR
1179O_MADIS2008-12-17 160.00024597SWEET HOME 1.0 ESE, OR
1180O_MADIS2008-12-17 160.00024650SWEET HOME 5.0 SW, OR
1181O_MADIS2008-12-17 160.00024269BROWNSVILLE 2.7 NW, OR
1213O_MADIS2008-12-17 150.00024410SPRINGFIELD 2.8 W, OR
1214O_MADIS2008-12-17 160.00024308BEAVERTON 2 WNW, OR
1232O_MADIS2008-12-17 160.00024420CORVALLIS 2.2 NW, OR
1235O_MADIS2008-12-17 150.00024436ALPINE 1 NE, OR
1237O_MADIS2008-12-17 140.00024896SANDY 1 ESE, OR
1240O_MADIS2008-12-17 150.0002456COQUILLE 4 NE, OR
1249O_MADIS2008-12-17 150.00024463EUGENE 2.5 SW, OR
1252O_MADIS2008-12-17 160.00024423VENETA 2.5 N, OR
1258O_MADIS2008-12-17 150.00024617EUGENE 3.6 SSE, OR
1262O_MADIS2008-12-17 160.00024443SALEM 3 SW, OR
1263O_MADIS2008-12-17 130.00024387SALEM 3 SW, OR
1264O_MADIS2008-12-17 150.00024650CAPITOL HILL 1, OR
1352O_MADIS2008-12-17 160.00024640BORING 1 E, OR
1359O_MADIS2008-12-17 150.00024840COLTON 1 E, OR
1362O_MADIS2008-12-17 160.0002489NORTH BEND 1.4 S, OR
1364O_MADIS2008-12-17 150.00024197BANDON 9 N, OR
1398O_MADIS2008-12-17 150.000242320PROSPECT 2 SW, OR
1404O_MADIS2008-12-17 160.000242730PROSPECT 2 SW, OR
1417O_MADIS2008-12-17 160.00024364EUGENE 3.2 N, OR
1421O_MADIS2008-12-17 150.00024371EUGENE 2.4 NNE, OR
1422O_MADIS2008-12-17 160.00024623DEXTER 1 W, OR
1423O_MADIS2008-12-17 150.00024505CRESWELL 2 N, OR
1425O_MADIS2008-12-17 160.00024400EUGENE 2 ENE, OR
1432O_MADIS2008-12-18 030.00024522CRESWELL 0.4 SE, OR
1434O_MADIS2008-12-17 140.00024883SPRINGFIELD 8 NE, OR
1443O_MADIS2008-12-17 150.0002443FLORENCE 5 S, OR
1446O_MADIS2008-12-17 150.00024495CRESWELL 3.2 NE, OR
1447O_MADIS2008-12-17 160.00024554SPRINGFIELD 1.6 N, OR
1451O_MADIS2008-12-17 150.00024476SPRINGFIELD 2.9 E, OR
1453O_MADIS2008-12-17 150.00024436SPRINGFIELD 0.9 NW, OR
1454O_MADIS2008-12-17 150.00024351EUGENE 4.5 NNW, OR
1456O_MADIS2008-12-17 160.00024476SPRINGFIELD 1.3 N, OR
1457O_MADIS2008-12-17 150.00024446ELMIRA 1 W, OR
1458O_MADIS2008-12-17 150.0002462FLORENCE 0.9 NW, OR
1459O_MADIS2008-12-17 150.000241660OAKRIDGE 4 NE, OR
1460O_MADIS2008-12-17 150.00024482SPRINGFIELD 2.9 ESE, OR
1461O_MADIS2008-12-17 150.00024479EUGENE 3.9 SSE, OR
1462O_MADIS2008-12-17 150.00024607EUGENE 3.9 SE, OR
1463O_MADIS2008-12-17 150.00024354VENETA 1 E, OR
1466O_MADIS2008-12-17 160.00024528CRESWELL 1 SE, OR
1467O_MADIS2008-12-17 150.00024440EUGENE 5 ESE, OR
1469O_MADIS2008-12-17 150.00024650EUGENE 4.0 SE, OR
1475O_MADIS2008-12-17 150.00024846LOWELL 1 SE, OR
1477O_MADIS2008-12-17 160.00024476EUGENE 2 SSE, OR
1479O_MADIS2008-12-17 150.00024495EUGENE 4 SSE, OR
1483O_MADIS2008-12-17 150.00024364EUGENE 3 NNW, OR
1486O_MADIS2008-12-17 150.000241155LYONS 1.6 SSW, OR
1489O_MADIS2008-12-17 150.00024354AUMSVILLE 5 S, OR
1497O_MADIS2008-12-17 150.00024384SALEM 5 SE, OR
1513O_MADIS2008-12-17 150.00024164INDEPENDENCE 1 NW, OR
1514O_MADIS2008-12-17 150.00024390SALEM 3 NW, OR
1518O_MADIS2008-12-17 160.00024682BEAVERTON 3 SSW, OR
1519O_MADIS2008-12-17 150.00024322BEAVERTON 5 W, OR
2089O_MADIS2008-12-17 150.00024230CORVALLIS 2.5 NE, OR
2090O_MADIS2008-12-17 150.00024272CORVALLIS 8.4 SSW, OR
2092O_MADIS2008-12-17 150.00024374CORVALLIS 3 WNW, OR
2093O_MADIS2008-12-17 160.00024190CORVALLIS 2.5 NE, OR
2094O_MADIS2008-12-17 150.00024246CORVALLIS 2.7 SSW, OR
2096O_MADIS2008-12-17 160.000241083PHILOMATH 4.8 NNW, OR
2097O_MADIS2008-12-17 160.00024686CORVALLIS 6.7 N, OR
2103O_MADIS2008-12-17 150.00024285PHILOMATH 1.1 E, OR
2105O_MADIS2008-12-17 150.00024823MONROE 5.7 WNW, OR
2107O_MADIS2008-12-17 160.00024203CORVALLIS 1.9 SSE, OR
2110O_MADIS2008-12-17 160.00024351ALBANY 3.8 NW, OR
2122O_MADIS2008-12-17 160.00024135WARREN 1 SW, OR
2136O_MADIS2008-12-17 150.00024472ROSEBURG 2 SW, OR
2139O_MADIS2008-12-17 170.000241516IDLEYLD PARK 4 ESE, OR
2143O_MADIS2008-12-17 160.000241362WINSTON 6.9 W, OR
2144O_MADIS2008-12-17 150.000241178OAKLAND 6.9 NNW, OR
2160O_MADIS2008-12-17 150.00024374COBURG 0.3 SSW, OR
2165O_MADIS2008-12-17 160.00024371EUGENE 1.5 NNE, OR
2168O_MADIS2008-12-17 160.00024820EUGENE 1.9 SSW, OR
2169O_MADIS2008-12-17 150.00024358EUGENE 2.7, OR
2171O_MADIS2008-12-17 160.000241106COTTAGE GROVE 2.6 E, OR
2173O_MADIS2008-12-17 150.00024581SPRINGFIELD 10.1 E, OR
2174O_MADIS2008-12-17 150.00024390EUGENE 1.3 SSW, OR
2175O_MADIS2008-12-17 160.00024400EUGENE 2.5 ENE, OR
2178O_MADIS2008-12-17 150.00024404SPRINGFIELD 2.1 WNW, OR
2179O_MADIS2008-12-17 140.00024469SPRINGFIELD 1.5 SE, OR
2180O_MADIS2008-12-17 150.00024509EUGENE 4.6 WSW, OR
2181O_MADIS2008-12-17 170.00024709LOWELL 2.6 WNW, OR
2183O_MADIS2008-12-17 150.00024374COBURG 0.3 W, OR
2184O_MADIS2008-12-17 150.00024472SPRINGFIELD 3.9 E, OR
2186O_MADIS2008-12-17 160.00024420SPRINGFIELD 2.1 NW, OR
2188O_MADIS2008-12-17 150.00024358RIVER ROAD 0.7 NW, OR
2193O_MADIS2008-12-17 150.00024322LEBANON 1.4 SSW, OR
2194O_MADIS2008-12-17 150.000241358SWEET HOME 2.0 NE, OR
2197O_MADIS2008-12-17 160.00024102SALEM 2 W, OR
2199O_MADIS2008-12-17 150.00024200SALEM 1.1 WSW, OR
2200O_MADIS2008-12-17 150.00024404SALEM 3.6 SSW, OR
2201O_MADIS2008-12-17 160.00024197SALEM 3.2 ENE, OR
2202O_MADIS2008-12-17 160.00024105KEIZER 1.3 SW, OR
2206O_MADIS2008-12-17 150.00024243SALEM 2.2 SW, OR
2207O_MADIS2008-12-17 150.00024331TURNER 6.6 S, OR
2211O_MADIS2008-12-17 150.00024676PORTLAND 7 SW, OR
2212O_MADIS2008-12-17 170.000241247SANDY 6.6 NNE, OR
2217O_MADIS2008-12-17 160.00024719DALLAS 3 WNW, OR
2220O_MADIS2008-12-17 160.00024207DALLAS 3.4 N, OR
2222O_MADIS2008-12-17 130.00024384DALLAS 0.3 NE, OR
2223O_MADIS2008-12-17 150.00024289SHERIDAN 4.6 SSW, OR
2237O_MADIS2008-12-17 150.00024105MCMINNVILLE 1.5 N, OR
2388O_MADIS2008-12-17 160.00024751ROSEBURG 3.8 SSW, OR
2389O_MADIS2008-12-17 150.000241083OAKLAND 4.5 W, OR
2391O_MADIS2008-12-17 140.000241568LYONS 2.5 S, OR
2498O_MADIS2008-12-17 150.00024407MOLALLA 6.4 SW, OR
2503O_MADIS2008-12-17 150.00024528ROSEBURG 1.9 SE, OR
2507O_MADIS2008-12-17 150.00024502WALTON 4 SW, OR
2510O_MADIS2008-12-17 150.00024351TIGARD 0.7 SSW, OR
2626O_MADIS2008-12-17 150.00024741EUGENE 5.8 SSE, OR
2627O_MADIS2008-12-17 160.00024118WALDPORT 5.2 NNE, OR
2672O_MADIS2008-12-17 150.00024991GLIDE 2.9 SSW, OR
2673O_MADIS2008-12-17 150.00024528OAKLAND 0.1 NNE, OR
2674O_MADIS2008-12-17 150.00024404SPRINGFIELD 2.1 NW, OR
2758O_MADIS2008-12-17 160.00024607ROSEBURG 6.0 SSW, OR
2875O_MADIS2008-12-17 160.00024328HILLSBORO 5.0 S, OR
3316C_MADIS2008-12-17 150.00024144VANCOUVER 4.2 NNE, WA
3485O_MADIS2008-12-17 140.00024413MULTNOMAH COUNTY, OR
3716O_MADIS2008-12-17 160.00024604METZGER 2.0 ENE, OR
3974O_MADIS2008-12-17 150.00024262COOS BAY 1.7 WNW, OR
4481C_MADIS2008-12-17 140.00024312CANBY 0.2 N, OR
6469O_MADIS2008-12-17 160.00024233CORVALLIS 0.6 ENE, OR
6603O_MADIS2008-12-17 150.00024272TUALATIN 0.6 SSE, OR
6628O_MADIS2008-12-17 150.00024161LAKE FOREST PARK 0.4 W, WA
6630O_MADIS2008-12-17 150.0002495MERCER ISLAND 1.5 NW, WA
6631O_MADIS2008-12-17 150.0002459KINGSTON 2.7 SSE, WA
6770O_MADIS2008-12-17 150.00024269ORCHARDS 1.0 SE, WA
6783O_MADIS2008-12-17 150.00024299SEATTLE 4.9 NNW, WA
6787O_MADIS2008-12-17 150.00024387RENTON 1.5 E, WA
6789O_MADIS2008-12-17 150.00024387REDMOND 2.1 W, WA
6793O_MADIS2008-12-17 150.00024663EASTGATE 1.7 SSW, WA
6795O_MADIS2008-12-17 150.00024348BELLEVUE 1.6 NNE, WA
6806O_MADIS2008-12-17 150.00024466SHORELINE 1.0 ESE, WA
6809O_MADIS2008-12-17 150.00024348SHERIDAN BEACH 3.7 S, WA
6814O_MADIS2008-12-17 150.00024305SEATTLE 3.5 NW, WA
6826O_MADIS2008-12-17 160.00024207BREMERTON 1.8 NE, WA
6830O_MADIS2008-12-17 160.0002433TRACYTON 2.3 WSW, WA
6835O_MADIS2008-12-17 150.00024410KITSAP COUNTY, WA
6872O_MADIS2008-12-17 180.00024545LYNNWOOD 2.3 N, WA
6926O_MADIS2008-12-17 140.00024272ORCHARDS NORTH 0.7 NW, WA
6930O_MADIS2008-12-17 150.00024351NEWPORT HILLS 1.9 SSE, WA
6934O_MADIS2008-12-17 150.00024197BELLEVUE 2.3 ENE, WA
6938O_MADIS2008-12-17 150.00024804BREWSTER 0.7 SW, WA
6952O_MADIS2008-12-17 150.00024105LYNDEN 0.8 NE, WA
7011O_MADIS2008-12-17 150.00024262CORVALLIS 4.0 NNE, OR
7028O_MADIS2008-12-17 150.00024128FORKS 6.9 WSW, WA
7036O_MADIS2008-12-17 160.00024167VANCOUVER 2.1 NW, WA
7038O_MADIS2008-12-17 160.00024374SEATTLE 5.6 SSW, WA
7041O_MADIS2008-12-17 150.0002475ISSAQUAH 3.6 NW, WA
7046O_MADIS2008-12-17 150.0002498BELLEVUE 1.8 W, WA
7050O_MADIS2008-12-17 150.00024466SEABECK 3.8 SW, WA
7052O_MADIS2008-12-17 150.00024138SUQUAMISH 1.4 E, WA
7054O_MADIS2008-12-17 160.00024364BAINBRIDGE ISLAND 2.4 SW, WA
7078O_MADIS2008-12-17 170.00024240OLYMPIA 6.0 WSW, WA
7265O_MADIS2008-12-17 160.0002423SEATTLE 4.2 SW, WA
7455O_MADIS2008-12-17 160.00024144SEATTLE 2.0 NE, WA
7675O_MADIS2008-12-17 160.00024217MERCER ISLAND 0.9 ENE, WA
7877O_MADIS2008-12-17 150.00024302KING COUNTY, WA
8354O_MADIS2008-12-17 070.00024285BEAVERTON 0.7 SSE, OR
8781O_MADIS2008-12-17 150.00024299SEATTLE 3.0 WNW, WA
AST2008-12-18 000.0002410ASTORIA AIRPORT
BDNO32008-12-18 010.0002430BANDON 2 NNE
BOMO32008-12-17 170.0002433BONNEVILLE DAM
BRMW12008-12-17 170.00024115BREMERTON
CHQO32008-12-17 180.000244180CHILOQUIN 12 NW
COQO32008-12-17 160.0002423COQUILLE CITY
CRLO32008-12-17 160.000246516CRATER LAKE NATIONAL PARK HQ
DRNO32008-12-17 160.00024892DRAIN
ELTO32008-12-17 160.00024138ELKTON 1SW
EUG2008-12-18 000.00024354EUGENE-MAHLON SWEET FIELD
LEBO32008-12-18 000.00024348LEBANON
LMLO32008-12-17 180.000244268LEMOLO LAKE 3NNW
LOSO32008-12-17 160.000241785LOST CREEK DAM
MLAO32008-12-17 160.00024663MOLALLA 7 NE
MNFO32008-12-17 170.000242497MARION FORKS FISH HATCHERY
OKDO32008-12-17 160.00024430OAKLAND,OR
OLEO32008-12-17 160.000244859ODELL LAKE-EAST
OTH2008-12-18 000.0002413NORTH BEND FCWOS
PDX2008-12-18 000.0002416PORTLAND INTERNATIONAL AIRPORT
ROGO32008-12-17 160.00024459ROSEBURG KQEN
SLE2008-12-18 000.00024217SALEM AP (MCNARY FIELD)
TKFO32008-12-18 030.000242051TOKETEE FALLS
UBKW12008-12-17 170.00024696UPPER BAKER DAM
WINO32008-12-17 160.00024463WINCHESTER
Data last summarized at December 21 2008 03:19:01 UTC.


NOHRSC
Mission Statement  |  Contact


National Weather Service
National Operational Hydrologic Remote Sensing Center
Office of Water Prediction
1735 Lake Drive W.
Chanhassen, MN 55317

NOHRSC homepage
Contact NOHRSC
Glossary
Credits
Information Quality
Page last modified: Jan 28, 2016
About Us
Disclaimer
Privacy Policy
FOIA
Career Opportunities